createdAt,value
2018-12-25T00:00:04.773Z,2.20
2018-12-25T00:02:33.931Z,2.20
2018-12-25T00:05:03.271Z,2.10
2018-12-25T00:07:32.587Z,2.10
2018-12-25T00:10:01.883Z,2.10
2018-12-25T00:12:31.229Z,2.00
2018-12-25T00:15:00.419Z,2.00
2018-12-25T00:17:29.613Z,1.90
2018-12-25T00:19:58.816Z,2.00
2018-12-25T00:22:27.984Z,1.90
2018-12-25T00:24:57.183Z,1.90
2018-12-25T00:27:26.538Z,1.90
2018-12-25T00:29:55.710Z,2.00
2018-12-25T00:32:25.015Z,2.00
2018-12-25T00:34:54.175Z,2.10
2018-12-25T00:37:26.203Z,2.10
2018-12-25T00:39:55.422Z,2.20
2018-12-25T00:42:24.653Z,2.20
2018-12-25T00:44:53.866Z,2.20
2018-12-25T00:47:23.214Z,2.30
2018-12-25T00:49:52.496Z,2.30
2018-12-25T00:52:21.701Z,2.30
2018-12-25T00:54:50.996Z,2.40
2018-12-25T00:57:20.134Z,2.40
2018-12-25T00:59:49.460Z,2.30
2018-12-25T01:02:18.761Z,2.40
2018-12-25T01:04:48.072Z,2.40
2018-12-25T01:07:19.143Z,2.40
2018-12-25T01:09:48.551Z,2.30
2018-12-25T01:12:17.766Z,2.30
2018-12-25T01:14:47.006Z,2.20
2018-12-25T01:17:16.212Z,2.10
2018-12-25T01:19:45.534Z,2.10
2018-12-25T01:22:14.696Z,2.00
2018-12-25T01:24:44.047Z,1.90
2018-12-25T01:27:13.405Z,1.90
2018-12-25T01:29:42.751Z,1.80
2018-12-25T01:32:11.967Z,1.70
2018-12-25T01:34:41.187Z,1.70
2018-12-25T01:37:10.461Z,1.70
2018-12-25T01:39:39.735Z,1.60
2018-12-25T01:42:08.967Z,1.60
2018-12-25T01:44:38.278Z,1.50
2018-12-25T01:47:07.495Z,1.50
2018-12-25T01:49:36.731Z,1.50
2018-12-25T01:52:05.983Z,1.50
2018-12-25T01:54:35.174Z,1.40
2018-12-25T01:57:04.470Z,1.40
2018-12-25T01:59:33.615Z,1.30
2018-12-25T02:02:02.956Z,1.30
2018-12-25T02:04:32.231Z,1.30
2018-12-25T02:07:01.591Z,1.30
2018-12-25T02:09:30.894Z,1.20
2018-12-25T02:12:00.217Z,1.20
2018-12-25T02:14:29.385Z,1.20
2018-12-25T02:16:58.606Z,1.20
2018-12-25T02:19:27.878Z,1.20
2018-12-25T02:21:57.113Z,1.10
2018-12-25T02:24:26.446Z,1.10
2018-12-25T02:26:55.614Z,1.00
2018-12-25T02:29:24.842Z,1.00
2018-12-25T02:31:54.024Z,1.00
2018-12-25T02:34:23.263Z,0.90
2018-12-25T02:36:52.571Z,0.90
2018-12-25T02:39:21.716Z,0.90
2018-12-25T02:41:50.951Z,0.90
2018-12-25T02:44:20.163Z,0.90
2018-12-25T02:46:49.379Z,0.90
2018-12-25T02:49:18.667Z,0.80
2018-12-25T02:51:47.893Z,0.70
2018-12-25T02:54:17.387Z,0.70
2018-12-25T02:56:46.711Z,0.70
2018-12-25T02:59:15.875Z,0.70
2018-12-25T03:01:45.126Z,0.60
2018-12-25T03:04:14.387Z,0.70
2018-12-25T03:06:43.711Z,0.60
2018-12-25T03:09:13.065Z,0.60
2018-12-25T03:11:42.341Z,0.50
2018-12-25T03:14:11.574Z,0.50
2018-12-25T03:16:40.805Z,0.50
2018-12-25T03:19:10.070Z,0.50
2018-12-25T03:21:39.723Z,0.50
2018-12-25T03:24:09.042Z,0.50
2018-12-25T03:26:38.215Z,0.50
2018-12-25T03:29:07.585Z,0.50
2018-12-25T03:31:36.962Z,0.50
2018-12-25T03:34:06.270Z,0.50
2018-12-25T03:36:35.524Z,0.50
2018-12-25T03:39:06.817Z,0.50
2018-12-25T03:41:36.191Z,0.50
2018-12-25T03:44:05.326Z,0.60
2018-12-25T03:46:34.640Z,0.60
2018-12-25T03:49:03.855Z,0.60
2018-12-25T03:51:32.991Z,0.60
2018-12-25T03:54:02.273Z,0.60
2018-12-25T03:56:31.442Z,0.60
2018-12-25T03:59:00.667Z,0.60
2018-12-25T04:01:29.807Z,0.60
2018-12-25T04:03:58.982Z,0.60
2018-12-25T04:06:28.263Z,0.60
2018-12-25T04:08:57.461Z,0.70
2018-12-25T04:11:26.696Z,0.60
2018-12-25T04:13:55.941Z,0.60
2018-12-25T04:16:25.047Z,0.60
2018-12-25T04:18:54.235Z,0.60
2018-12-25T04:21:23.372Z,0.60
2018-12-25T04:23:52.751Z,0.60
2018-12-25T04:26:21.907Z,0.60
2018-12-25T04:28:51.576Z,0.60
2018-12-25T04:31:20.836Z,0.50
2018-12-25T04:33:50.041Z,0.50
2018-12-25T04:36:19.336Z,0.40
2018-12-25T04:38:49.597Z,0.30
2018-12-25T04:41:18.916Z,0.30
2018-12-25T04:43:48.119Z,0.30
2018-12-25T04:46:17.384Z,0.30
2018-12-25T04:48:46.636Z,0.30
2018-12-25T04:51:15.895Z,0.30
2018-12-25T04:53:45.187Z,0.40
2018-12-25T04:56:14.359Z,0.40
2018-12-25T04:58:43.579Z,0.40
2018-12-25T05:01:12.728Z,0.40
2018-12-25T05:03:41.917Z,0.40
2018-12-25T05:06:11.054Z,0.50
2018-12-25T05:08:40.302Z,0.40
2018-12-25T05:11:09.560Z,0.40
2018-12-25T05:13:38.764Z,0.40
2018-12-25T05:16:08.004Z,0.40
2018-12-25T05:18:37.248Z,0.40
2018-12-25T05:21:06.484Z,0.40
2018-12-25T05:23:35.746Z,0.40
2018-12-25T05:26:05.066Z,0.40
2018-12-25T05:28:34.290Z,0.50
2018-12-25T05:31:03.493Z,0.50
2018-12-25T05:33:32.712Z,0.50
2018-12-25T05:36:02.089Z,0.50
2018-12-25T05:38:31.412Z,0.50
2018-12-25T05:41:00.792Z,0.50
2018-12-25T05:43:30.067Z,0.50
2018-12-25T05:46:00.134Z,0.50
2018-12-25T05:48:29.370Z,0.50
2018-12-25T05:50:58.637Z,0.50
2018-12-25T05:53:27.782Z,0.50
2018-12-25T05:55:56.935Z,0.50
2018-12-25T05:58:26.333Z,0.50
2018-12-25T06:00:55.686Z,0.60
2018-12-25T06:03:24.841Z,0.60
2018-12-25T06:05:53.989Z,0.60
2018-12-25T06:08:23.231Z,0.60
2018-12-25T06:10:52.492Z,0.60
2018-12-25T06:13:21.795Z,0.60
2018-12-25T06:15:50.959Z,0.60
2018-12-25T06:18:20.327Z,0.60
2018-12-25T06:20:55.029Z,0.70
2018-12-25T06:23:20.429Z,0.60
2018-12-25T06:25:49.715Z,0.60
2018-12-25T06:28:19.007Z,0.60
2018-12-25T06:30:48.365Z,0.60
2018-12-25T06:33:17.687Z,0.60
2018-12-25T06:35:47.007Z,0.60
2018-12-25T06:38:16.374Z,0.60
2018-12-25T06:40:45.859Z,0.60
2018-12-25T06:43:15.010Z,0.60
2018-12-25T06:45:44.295Z,0.60
2018-12-25T06:48:13.487Z,0.60
2018-12-25T06:50:42.691Z,0.60
2018-12-25T06:53:12.011Z,0.60
2018-12-25T06:55:41.327Z,0.70
2018-12-25T06:58:10.580Z,0.70
2018-12-25T07:00:39.782Z,0.70
2018-12-25T07:03:09.003Z,0.60
2018-12-25T07:05:38.266Z,0.60
2018-12-25T07:08:07.448Z,0.60
2018-12-25T07:10:36.679Z,0.70
2018-12-25T07:13:05.988Z,0.70
2018-12-25T07:15:35.198Z,0.70
2018-12-25T07:18:23.540Z,0.70
2018-12-25T07:20:52.860Z,0.70
2018-12-25T07:23:22.091Z,0.70
2018-12-25T07:25:51.464Z,0.80
2018-12-25T07:28:20.717Z,0.80
2018-12-25T07:30:50.020Z,0.80
2018-12-25T07:33:19.285Z,0.90
2018-12-25T07:35:48.789Z,0.90
2018-12-25T07:38:17.984Z,0.90
2018-12-25T07:40:47.245Z,0.90
2018-12-25T07:43:16.459Z,1.00
2018-12-25T07:45:45.741Z,1.00
2018-12-25T07:48:14.939Z,1.00
2018-12-25T07:50:44.191Z,1.00
2018-12-25T07:53:13.525Z,1.00
2018-12-25T07:55:42.757Z,1.10
2018-12-25T07:58:11.995Z,1.10
2018-12-25T08:00:41.303Z,1.20
2018-12-25T08:03:10.512Z,1.20
2018-12-25T08:05:39.725Z,1.20
2018-12-25T08:08:09.031Z,1.20
2018-12-25T08:10:38.207Z,1.30
2018-12-25T08:13:07.501Z,1.30
2018-12-25T08:15:36.829Z,1.30
2018-12-25T08:18:06.063Z,1.80
2018-12-25T08:20:35.407Z,2.00
2018-12-25T08:23:04.673Z,2.50
2018-12-25T08:25:33.896Z,2.60
2018-12-25T08:28:03.084Z,2.60
2018-12-25T08:30:32.321Z,2.50
2018-12-25T08:33:01.679Z,2.40
2018-12-25T08:35:30.851Z,2.30
2018-12-25T08:38:00.115Z,2.30
2018-12-25T08:40:29.363Z,2.30
2018-12-25T08:42:58.589Z,2.30
2018-12-25T08:45:27.788Z,2.30
2018-12-25T08:47:57.053Z,2.30
2018-12-25T08:50:26.292Z,2.40
2018-12-25T08:52:55.533Z,2.60
2018-12-25T08:55:24.872Z,2.70
2018-12-25T08:57:54.976Z,2.70
2018-12-25T09:00:24.356Z,2.70
2018-12-25T09:02:53.579Z,2.60
2018-12-25T09:05:22.737Z,2.50
2018-12-25T09:07:51.895Z,2.50
2018-12-25T09:10:21.140Z,2.40
2018-12-25T09:12:50.372Z,2.30
2018-12-25T09:15:19.553Z,2.30
2018-12-25T09:17:48.739Z,2.20
2018-12-25T09:20:17.969Z,2.20
2018-12-25T09:22:47.233Z,2.10
2018-12-25T09:25:16.387Z,2.10
2018-12-25T09:27:45.571Z,2.10
2018-12-25T09:30:14.759Z,2.00
2018-12-25T09:32:43.924Z,2.10
2018-12-25T09:35:13.074Z,2.10
2018-12-25T09:37:42.310Z,2.10
2018-12-25T09:40:11.576Z,2.20
2018-12-25T09:42:40.815Z,2.30
2018-12-25T09:45:10.005Z,2.30
2018-12-25T09:47:39.249Z,2.30
2018-12-25T09:50:08.435Z,2.30
2018-12-25T09:52:37.719Z,2.40
2018-12-25T09:55:07.010Z,2.40
2018-12-25T09:57:36.295Z,2.40
2018-12-25T10:00:05.931Z,2.40
2018-12-25T10:02:35.340Z,2.40
2018-12-25T10:05:04.550Z,2.40
2018-12-25T10:07:33.911Z,2.30
2018-12-25T10:10:03.137Z,2.30
2018-12-25T10:12:32.405Z,2.30
2018-12-25T10:15:01.552Z,2.40
2018-12-25T10:17:30.761Z,2.30
2018-12-25T10:19:59.936Z,2.20
2018-12-25T10:22:29.159Z,2.20
2018-12-25T10:24:58.416Z,2.20
2018-12-25T10:27:27.719Z,2.20
2018-12-25T10:29:56.981Z,2.10
2018-12-25T10:32:26.273Z,2.10
2018-12-25T10:34:55.616Z,2.20
2018-12-25T10:37:24.931Z,2.20
2018-12-25T10:39:54.097Z,2.40
2018-12-25T10:42:23.210Z,2.40
2018-12-25T10:44:52.387Z,2.40
2018-12-25T10:47:21.833Z,2.50
2018-12-25T10:49:51.041Z,2.50
2018-12-25T10:52:20.283Z,2.50
2018-12-25T10:54:50.400Z,2.50
2018-12-25T10:57:19.759Z,2.50
2018-12-25T10:59:49.027Z,2.50
2018-12-25T11:02:18.190Z,2.50
2018-12-25T11:04:47.379Z,2.50
2018-12-25T11:07:16.515Z,2.50
2018-12-25T11:09:45.669Z,2.40
2018-12-25T11:12:14.824Z,2.50
2018-12-25T11:14:44.025Z,2.50
2018-12-25T11:17:13.187Z,2.50
2018-12-25T11:19:42.434Z,2.50
2018-12-25T11:22:19.658Z,2.50
2018-12-25T11:24:42.680Z,2.50
2018-12-25T11:27:11.866Z,2.60
2018-12-25T11:29:41.115Z,2.60
2018-12-25T11:32:10.344Z,2.60
2018-12-25T11:34:39.553Z,2.60
2018-12-25T11:37:28.077Z,2.60
2018-12-25T11:39:57.355Z,2.60
2018-12-25T11:42:26.635Z,2.60
2018-12-25T11:44:55.991Z,2.60
2018-12-25T11:47:25.257Z,2.60
2018-12-25T11:49:54.515Z,2.60
2018-12-25T11:52:28.388Z,2.50
2018-12-25T11:54:54.572Z,2.60
2018-12-25T11:57:23.735Z,2.50
2018-12-25T11:59:52.893Z,2.60
2018-12-25T12:02:22.164Z,2.60
2018-12-25T12:04:51.320Z,2.70
2018-12-25T12:07:20.461Z,2.70
2018-12-25T12:09:49.742Z,2.70
2018-12-25T12:12:18.957Z,2.60
2018-12-25T12:14:48.198Z,2.60
2018-12-25T12:17:17.440Z,2.60
2018-12-25T12:19:46.730Z,2.70
2018-12-25T12:22:16.020Z,2.70
2018-12-25T12:24:45.229Z,2.70
2018-12-25T12:27:14.469Z,2.70
2018-12-25T12:29:43.769Z,2.70
2018-12-25T12:32:12.951Z,2.70
2018-12-25T12:34:42.175Z,2.70
2018-12-25T12:37:11.421Z,2.60
2018-12-25T12:39:40.594Z,2.60
2018-12-25T12:42:09.903Z,2.60
2018-12-25T12:44:39.263Z,2.70
2018-12-25T12:47:08.540Z,2.60
2018-12-25T12:49:37.865Z,2.60
2018-12-25T12:52:07.141Z,2.60
2018-12-25T12:54:36.373Z,2.70
2018-12-25T12:57:06.385Z,2.80
2018-12-25T12:59:35.633Z,2.80
2018-12-25T13:02:04.839Z,2.80
2018-12-25T13:04:34.025Z,2.80
2018-12-25T13:07:03.183Z,2.80
2018-12-25T13:09:32.365Z,2.80
2018-12-25T13:12:01.509Z,2.80
2018-12-25T13:14:30.745Z,2.80
2018-12-25T13:16:59.884Z,2.80
2018-12-25T13:19:29.108Z,2.80
2018-12-25T13:21:58.321Z,2.80
2018-12-25T13:24:27.499Z,2.80
2018-12-25T13:26:56.725Z,2.70
2018-12-25T13:29:25.988Z,2.70
2018-12-25T13:31:55.258Z,2.70
2018-12-25T13:34:24.513Z,2.70
2018-12-25T13:36:53.820Z,2.70
2018-12-25T13:39:23.109Z,2.80
2018-12-25T13:41:52.367Z,2.80
2018-12-25T13:44:21.638Z,2.80
2018-12-25T13:46:51.792Z,2.80
2018-12-25T13:49:21.393Z,2.70
2018-12-25T13:51:50.639Z,2.70
2018-12-25T13:54:19.867Z,2.70
2018-12-25T13:57:08.114Z,2.70
2018-12-25T13:59:37.399Z,2.60
2018-12-25T14:02:06.685Z,2.70
2018-12-25T14:04:35.835Z,2.60
2018-12-25T14:07:24.127Z,2.70
2018-12-25T14:09:53.367Z,2.70
2018-12-25T14:12:22.820Z,2.70
2018-12-25T14:14:52.013Z,2.70
2018-12-25T14:17:21.229Z,2.70
2018-12-25T14:19:50.587Z,2.70
2018-12-25T14:22:19.998Z,2.70
2018-12-25T14:24:49.474Z,2.70
2018-12-25T14:27:18.724Z,2.80
2018-12-25T14:29:48.100Z,2.70
2018-12-25T14:32:17.423Z,2.70
2018-12-25T14:34:46.771Z,2.70
2018-12-25T14:37:16.115Z,2.70
2018-12-25T14:39:45.403Z,2.80
2018-12-25T14:42:14.707Z,2.90
2018-12-25T14:44:44.176Z,3.00
2018-12-25T14:47:13.475Z,3.10
2018-12-25T14:49:42.719Z,3.20
2018-12-25T14:52:12.072Z,3.20
2018-12-25T14:54:41.487Z,3.10
2018-12-25T14:57:10.797Z,3.00
2018-12-25T14:59:40.095Z,2.80
2018-12-25T15:02:09.679Z,2.80
2018-12-25T15:04:38.975Z,2.70
2018-12-25T15:07:08.521Z,2.70
2018-12-25T15:09:37.858Z,2.80
2018-12-25T15:12:07.220Z,2.80
2018-12-25T15:14:36.521Z,2.90
2018-12-25T15:17:05.763Z,3.00
2018-12-25T15:19:35.088Z,3.10
2018-12-25T15:22:04.362Z,3.10
2018-12-25T15:24:33.672Z,3.10
2018-12-25T15:27:03.024Z,3.00
2018-12-25T15:29:32.281Z,3.10
2018-12-25T15:32:01.560Z,3.00
2018-12-25T15:34:30.909Z,3.10
2018-12-25T15:37:00.239Z,3.10
2018-12-25T15:39:29.522Z,3.00
2018-12-25T15:41:58.693Z,2.80
2018-12-25T15:44:27.847Z,2.70
2018-12-25T15:46:57.109Z,2.60
2018-12-25T15:49:26.347Z,2.60
2018-12-25T15:51:55.924Z,2.60
2018-12-25T15:54:25.213Z,2.50
2018-12-25T15:56:54.683Z,2.50
2018-12-25T15:59:23.995Z,2.50
2018-12-25T16:01:53.280Z,2.50
2018-12-25T16:04:22.443Z,2.40
2018-12-25T16:06:51.661Z,2.40
2018-12-25T16:09:20.955Z,2.40
2018-12-25T16:11:50.109Z,2.40
2018-12-25T16:14:19.255Z,2.40
2018-12-25T16:16:48.457Z,2.50
2018-12-25T16:19:17.663Z,2.40
2018-12-25T16:21:48.003Z,2.40
2018-12-25T16:24:17.378Z,2.50
2018-12-25T16:26:46.652Z,2.40
2018-12-25T16:29:15.955Z,2.40
2018-12-25T16:31:45.161Z,2.30
2018-12-25T16:34:14.500Z,2.20
2018-12-25T16:36:43.719Z,2.20
2018-12-25T16:39:12.952Z,2.20
2018-12-25T16:41:42.111Z,2.20
2018-12-25T16:44:11.245Z,2.20
2018-12-25T16:46:40.470Z,2.40
2018-12-25T16:49:09.877Z,2.50
2018-12-25T16:51:39.094Z,2.50
2018-12-25T16:54:08.407Z,2.30
2018-12-25T16:56:37.620Z,2.20
2018-12-25T16:59:06.879Z,2.20
2018-12-25T17:01:36.181Z,2.10
2018-12-25T17:04:05.366Z,2.00
2018-12-25T17:06:34.615Z,1.90
2018-12-25T17:09:05.091Z,1.90
2018-12-25T17:11:34.355Z,1.90
2018-12-25T17:14:03.610Z,1.90
2018-12-25T17:16:32.797Z,1.90
2018-12-25T17:19:02.078Z,1.90
2018-12-25T17:21:31.245Z,1.90
2018-12-25T17:24:02.382Z,1.90
2018-12-25T17:26:31.606Z,1.90
2018-12-25T17:29:00.761Z,1.90
2018-12-25T17:31:30.079Z,1.90
2018-12-25T17:33:59.269Z,1.90
2018-12-25T17:36:28.435Z,1.90
2018-12-25T17:38:57.636Z,1.90
2018-12-25T17:41:26.870Z,1.80
2018-12-25T17:43:56.100Z,1.80
2018-12-25T17:46:25.435Z,1.80
2018-12-25T17:48:54.657Z,1.70
2018-12-25T17:51:24.010Z,1.70
2018-12-25T17:53:53.330Z,1.60
2018-12-25T17:56:22.570Z,1.60
2018-12-25T17:58:51.754Z,1.70
2018-12-25T18:01:21.033Z,1.60
2018-12-25T18:03:50.406Z,1.50
2018-12-25T18:06:19.799Z,1.40
2018-12-25T18:08:49.093Z,1.40
2018-12-25T18:11:18.461Z,1.30
2018-12-25T18:13:47.693Z,1.30
2018-12-25T18:16:16.923Z,1.30
2018-12-25T18:18:46.144Z,1.30
2018-12-25T18:21:15.376Z,1.30
2018-12-25T18:23:44.624Z,1.30
2018-12-25T18:26:13.786Z,1.20
2018-12-25T18:28:43.001Z,1.20
2018-12-25T18:31:12.217Z,1.20
2018-12-25T18:33:41.471Z,1.30
2018-12-25T18:36:10.710Z,1.30
2018-12-25T18:38:39.882Z,1.30
2018-12-25T18:41:09.170Z,1.20
2018-12-25T18:43:38.502Z,1.20
2018-12-25T18:46:07.727Z,1.10
2018-12-25T18:48:36.929Z,1.10
2018-12-25T18:51:06.221Z,1.10
2018-12-25T18:53:35.463Z,1.10
2018-12-25T18:56:04.612Z,1.00
2018-12-25T18:58:33.811Z,1.00
2018-12-25T19:01:03.048Z,0.90
2018-12-25T19:03:32.277Z,0.90
2018-12-25T19:06:01.579Z,0.80
2018-12-25T19:08:30.777Z,0.80
2018-12-25T19:10:59.987Z,0.70
2018-12-25T19:13:29.246Z,0.70
2018-12-25T19:16:00.132Z,0.70
2018-12-25T19:18:29.368Z,0.60
2018-12-25T19:20:58.717Z,0.60
2018-12-25T19:23:27.971Z,0.60
2018-12-25T19:25:57.223Z,0.50
2018-12-25T19:28:26.450Z,0.40
2018-12-25T19:30:55.627Z,0.40
2018-12-25T19:33:24.948Z,0.40
2018-12-25T19:35:54.386Z,0.40
2018-12-25T19:38:23.597Z,0.30
2018-12-25T19:40:52.961Z,0.30
2018-12-25T19:43:22.270Z,0.30
2018-12-25T19:45:51.682Z,0.30
2018-12-25T19:48:20.904Z,0.30
2018-12-25T19:50:50.142Z,0.30
2018-12-25T19:53:19.397Z,0.40
2018-12-25T19:55:48.671Z,0.40
2018-12-25T19:58:17.859Z,0.40
2018-12-25T20:00:47.041Z,0.30
2018-12-25T20:03:24.268Z,0.40
2018-12-25T20:06:26.111Z,0.40
2018-12-25T20:09:21.623Z,0.40
2018-12-25T20:12:39.833Z,0.30
2018-12-25T20:15:48.337Z,0.30
2018-12-25T20:18:32.425Z,0.20
2018-12-25T20:21:49.906Z,0.10
2018-12-25T20:24:54.843Z,0.10
2018-12-25T20:27:57.843Z,0.10
2018-12-25T20:30:57.533Z,0.10
2018-12-25T20:34:02.615Z,0.10
2018-12-25T20:37:21.914Z,0.10
2018-12-25T20:40:44.108Z,0.20
2018-12-25T20:44:08.436Z,0.10
2018-12-25T20:47:11.113Z,0.10
2018-12-25T20:50:19.039Z,0.00
2018-12-25T20:53:25.051Z,0.10
2018-12-25T20:56:18.234Z,0.00
2018-12-25T20:59:33.382Z,0.00
2018-12-25T21:02:45.369Z,-0.10
2018-12-25T21:06:04.493Z,-0.10
2018-12-25T21:09:27.110Z,0.00
2018-12-25T21:12:33.698Z,0.00
2018-12-25T21:15:37.997Z,0.00
2018-12-25T21:19:00.524Z,0.10
2018-12-25T21:22:07.860Z,0.20
2018-12-25T21:25:25.904Z,0.20
2018-12-25T21:27:53.570Z,0.30
2018-12-25T21:30:24.135Z,0.30
2018-12-25T21:32:53.356Z,0.30
2018-12-25T21:35:24.372Z,0.30
2018-12-25T21:37:55.748Z,0.30
2018-12-25T21:40:25.088Z,0.30
2018-12-25T21:42:55.063Z,0.40
2018-12-25T21:45:24.220Z,0.40
2018-12-25T21:47:54.532Z,0.30
2018-12-25T21:50:24.235Z,0.40
2018-12-25T21:52:54.386Z,0.30
2018-12-25T21:55:23.513Z,0.20
2018-12-25T21:57:53.429Z,0.10
2018-12-25T22:00:24.784Z,0.10
2018-12-25T22:02:54.426Z,0.00
2018-12-25T22:05:24.305Z,0.00
2018-12-25T22:07:53.577Z,0.00
2018-12-25T22:10:22.863Z,0.00
2018-12-25T22:12:52.149Z,0.00
2018-12-25T22:15:21.521Z,0.00
2018-12-25T22:17:50.866Z,0.00
2018-12-25T22:20:32.536Z,0.10
2018-12-25T22:23:01.770Z,0.10
2018-12-25T22:25:31.208Z,0.10
2018-12-25T22:28:00.568Z,0.10
2018-12-25T22:30:29.760Z,0.10
2018-12-25T22:32:59.046Z,0.10
2018-12-25T22:35:28.355Z,0.00
2018-12-25T22:37:57.662Z,-0.10
2018-12-25T22:40:26.840Z,-0.20
2018-12-25T22:42:56.157Z,-0.20
2018-12-25T22:45:25.320Z,-0.30
2018-12-25T22:47:54.504Z,-0.30
2018-12-25T22:50:23.794Z,-0.30
2018-12-25T22:52:53.087Z,-0.30
2018-12-25T22:55:22.362Z,-0.40
2018-12-25T22:57:51.651Z,-0.40
2018-12-25T23:00:21.703Z,-0.40
2018-12-25T23:02:50.948Z,-0.50
2018-12-25T23:05:20.252Z,-0.50
2018-12-25T23:07:49.537Z,-0.60
2018-12-25T23:10:18.791Z,-0.60
2018-12-25T23:12:48.101Z,-0.60
2018-12-25T23:15:17.391Z,-0.70
2018-12-25T23:17:46.682Z,-0.70
2018-12-25T23:20:15.892Z,-0.70
2018-12-25T23:22:45.102Z,-0.70
2018-12-25T23:25:14.273Z,-0.70
2018-12-25T23:27:43.536Z,-0.70
2018-12-25T23:30:12.811Z,-0.70
2018-12-25T23:32:42.072Z,-0.70
2018-12-25T23:35:11.376Z,-0.70
2018-12-25T23:37:40.771Z,-0.80
2018-12-25T23:40:10.028Z,-0.80
2018-12-25T23:42:39.281Z,-0.80
2018-12-25T23:45:08.462Z,-0.90
2018-12-25T23:47:37.776Z,-0.80
2018-12-25T23:50:07.027Z,-0.80
2018-12-25T23:52:36.360Z,-0.80
2018-12-25T23:55:05.590Z,-0.80
2018-12-25T23:57:34.872Z,-0.90
